Hiles, WI

6:27 AM CDT on September 02, 2015 (GMT -0500)
Silver Lake, Laona, WI | | Change Station
CLOSE
Current Station
Personal Weather Station
Location: Laona, WI
Elevation: 1581 ft
Nearby Weather Stations
Active Advisory: Special Statement

Elev 1581 ft 45.55 °N, 88.72 °W | Updated 2 seconds ago

Mostly Cloudy
Mostly Cloudy
66.4 °F
Feels Like 66.4 °F
N
0.0
Wind Variable Wind from NE
Gusts 0.0 mph

Today
High -- | Low -- °F
--% Chance of Precip.
Yesterday
High -- | Low -- °F
Precip. -- in
6:17 AM 7:31 PM
Waning Gibbous, 81% visible
Pressure 30.00 in
Visibility 4.0 miles
Clouds Scattered Clouds 2800 ft
Scattered Clouds 3500 ft
Dew Point 66 °F
Humidity 98%
Rainfall 0.00 in
Snow Depth Not available.
UV 0 out of 12
Pollen 10.00 out of 12
Air Quality Not available.
Flu Activity Not available.
METAR KEGV 021115Z AUTO 00000KT 4SM BR SCT028 SCT035 17/17 A3000 RMK AO2 T01710171
Pressure 30.00 in
Visibility 4.0 miles
Clouds Scattered Clouds 2800 ft
Scattered Clouds 3500 ft
Dew Point 66 °F
Humidity 98%
Rainfall 0.00 in
Snow Depth Not available.
UV 0 out of 12
Pollen 10.00 out of 12
Air Quality Not available.
Flu Activity Not available.
METAR KEGV 021115Z AUTO 00000KT 4SM BR SCT028 SCT035 17/17 A3000 RMK AO2 T01710171

10-Day Weather Forecast

×

Almanac

Astronomy

Sep. 02, 2015 Rise Set
Actual Time
Civil Twilight
Nautical Twilight
Astronomical Twilight
Moon
Length of Visible Light
Length of Day
Tomorrow will be .
, % of the Moon is Illuminated

Today's Extremes

State Highs State Lows

Community

WunderPhotos

Upload Photos

1,851,736 photos uploaded!

WunderBlogs® & News

Nearby

Air Quality

  Air Quality AQ Index Pollutant
Not available.

Snow Depth

Station Depth Elevation

Earthquake Activity

City Distance Mag. Time & Date
Minimum magnitude displayed is 2.5.

Coastal Water Temperatures

Place Temperature

Stations

Nearby Weather Stations

Station Location Temp. Windchill Dew Point Humidity Wind Precip. Elev Updated Type
                   
Special Statement
Statement as of 3:50 AM CDT on September 02, 2015

... Areas of dense fog this morning...

Moist air combined with light winds and clear skies has resulted
in areas of dense fog this morning. Visibilities will be less
than a quarter mile in some areas so drive with care and be ready
to slow down when driving in fog. Motorists are urged to exercise
caution during the morning commute... as visibilities can vary
significantly in a very short distance.

The foggy conditions should improve by 9 am.


Kurimski

350 am CDT Wed Sep 2 2015

... Areas of dense fog this morning...

Moist air combined with light winds and clear skies has resulted
in areas of dense fog this morning. Visibilities will be less
than a quarter mile in some areas so drive with care and be ready
to slow down when driving in fog. Motorists are urged to exercise
caution during the morning commute... as visibilities can vary
significantly in a very short distance.

The foggy conditions should improve by 9 am.


Kurimski